Preston Ferry, Arkansas
Current Conditions -  °F | °C
As of 7:55 PM on Saturday 25 Oct 2014 (Local Time) from KSGT Reporting Station
Clear Clear  
Wind Chill: 70°   Ceiling: Unl
Heat Index: 70°   Visibility: 10mi
Dew Point: 63°   Wind: 8mph
Humidity: 78%   Direction: 200°SSW
Pressure: 30.04"   Gusts: NA
Location:  34.6163°N, 91.3754°W
Report Text: KSGT 260055Z AUTO 20007KT 10SM CLR 21/17 A3004 RMK AO1
Loading
Personal Weather Stations






























Interactive Weather Map
Tropical Storm Tracking
New forecast layout! Learn more

10-Day Weather Forecast

Advertisements
Track Severe Weather on mobile